This is the latest recevied weather packets stored in our database for station/object YF9UAG-17. If no packets are shown the sender has not sent any weather packets the latest 10 day(s).
| Time | Temp. | Humidity | Pressure | Rain* | Wind** | Luminosity | Snow |
|---|---|---|---|---|---|---|---|
| 1787647504 | 31.67° C | 45% | 1030.5 hPa | - | - | - | - |
| 1787646900 | 32.78° C | 43% | 1030.4 hPa | - | - | - | - |
| 1787646296 | 31.11° C | 46% | 1030.4 hPa | - | - | - | - |
| 1787645693 | 31.67° C | 46% | 1030.3 hPa | - | - | - | - |
| 1787645090 | 32.22° C | 43% | 1030.2 hPa | - | - | - | - |
| 1787644487 | 32.22° C | 43% | 1030.2 hPa | - | - | - | - |
| 1787643884 | 32.22° C | 42% | 1030.4 hPa | - | - | - | - |
| 1787643281 | 31.67° C | 46% | 1030.4 hPa | - | - | - | - |
| 1787642676 | 31.67° C | 46% | 1030.4 hPa | - | - | - | - |
| 1787642073 | 31.67° C | 46% | 1030.5 hPa | - | - | - | - |
| 1787641469 | 31.67° C | 47% | 1030.7 hPa | - | - | - | - |
| 1787640866 | 31.67° C | 47% | 1030.8 hPa | - | - | - | - |
| 1787640263 | 31.11° C | 48% | 1030.8 hPa | - | - | - | - |
| 1787639659 | 31.11° C | 47% | 1030.9 hPa | - | - | - | - |
| 1787639057 | 31.11° C | 46% | 1031.2 hPa | - | - | - | - |
| 1787638454 | 30.56° C | 49% | 1031.4 hPa | - | - | - | - |
| 1787637851 | 30.56° C | 49% | 1031.4 hPa | - | - | - | - |
| 1787637248 | 29.44° C | 50% | 1031.5 hPa | - | - | - | - |
| 1787636645 | 29.44° C | 50% | 1031.7 hPa | - | - | - | - |
| 1787636042 | 29.44° C | 49% | 1031.9 hPa | - | - | - | - |
| 1787635437 | 29.44° C | 50% | 1032.2 hPa | - | - | - | - |
| 1787634833 | 29.44° C | 48% | 1032.2 hPa | - | - | - | - |
| 1787634230 | 29.44° C | 48% | 1032.2 hPa | - | - | - | - |
| 1787633626 | 28.89° C | 49% | 1032.3 hPa | - | - | - | - |
| 1787633021 | 28.89° C | 50% | 1032.5 hPa | - | - | - | - |
* Rain since midnight (hover to see other rain measurements)
** Current wind speed in m/s (hover to see current wind gust speed)